createdAt,value
2018-03-11T00:00:44.363Z,61.80
2018-03-11T00:01:44.361Z,61.51
2018-03-11T00:02:44.359Z,61.42
2018-03-11T00:03:44.357Z,61.61
2018-03-11T00:04:44.354Z,61.13
2018-03-11T00:05:44.352Z,60.75
2018-03-11T00:06:44.349Z,60.75
2018-03-11T00:07:44.347Z,60.85
2018-03-11T00:08:44.344Z,60.94
2018-03-11T00:09:44.343Z,60.85
2018-03-11T00:10:44.340Z,60.75
2018-03-11T00:11:44.338Z,60.46
2018-03-11T00:12:44.336Z,60.85
2018-03-11T00:13:44.335Z,60.75
2018-03-11T00:14:44.345Z,60.75
2018-03-11T00:15:44.329Z,61.13
2018-03-11T00:16:44.326Z,60.75
2018-03-11T00:17:44.324Z,60.66
2018-03-11T00:18:44.323Z,60.46
2018-03-11T00:19:44.320Z,59.89
2018-03-11T00:20:44.320Z,59.70
2018-03-11T00:21:44.314Z,59.89
2018-03-11T00:22:44.315Z,59.51
2018-03-11T00:23:44.310Z,59.23
2018-03-11T00:24:44.307Z,58.94
2018-03-11T00:25:44.304Z,59.70
2018-03-11T00:26:44.303Z,59.80
2018-03-11T00:27:44.301Z,59.80
2018-03-11T00:28:44.298Z,59.23
2018-03-11T00:29:44.295Z,59.32
2018-03-11T00:30:44.293Z,59.32
2018-03-11T00:31:44.291Z,59.61
2018-03-11T00:32:44.288Z,59.42
2018-03-11T00:33:44.286Z,59.32
2018-03-11T00:34:44.306Z,59.42
2018-03-11T00:35:44.282Z,59.23
2018-03-11T00:36:44.279Z,59.42
2018-03-11T00:37:44.276Z,59.23
2018-03-11T00:38:44.275Z,59.51
2018-03-11T00:39:44.271Z,58.84
2018-03-11T00:40:44.269Z,59.32
2018-03-11T00:41:44.267Z,59.13
2018-03-11T00:42:44.266Z,59.32
2018-03-11T00:43:44.262Z,58.75
2018-03-11T00:44:44.260Z,58.47
2018-03-11T00:45:44.257Z,58.28
2018-03-11T00:46:44.254Z,58.75
2018-03-11T00:47:44.254Z,59.32
2018-03-11T00:48:44.250Z,59.13
2018-03-11T00:49:44.247Z,59.23
2018-03-11T00:50:44.245Z,59.51
2018-03-11T00:51:44.243Z,59.42
2018-03-11T00:52:44.240Z,59.51
2018-03-11T00:53:44.239Z,59.13
2018-03-11T00:54:44.236Z,59.32
2018-03-11T00:55:44.234Z,59.32
2018-03-11T00:56:44.234Z,59.13
2018-03-11T00:57:44.227Z,58.56
2018-03-11T00:58:44.226Z,58.18
2018-03-11T00:59:44.224Z,58.47
2018-03-11T01:00:44.220Z,58.65
2018-03-11T01:01:44.219Z,58.47
2018-03-11T01:02:44.216Z,58.47
2018-03-11T01:03:44.200Z,58.47
2018-03-11T01:04:44.196Z,58.28
2018-03-11T01:05:44.194Z,58.28
2018-03-11T01:06:44.193Z,58.75
2018-03-11T01:07:44.190Z,58.37
2018-03-11T01:08:44.187Z,58.56
2018-03-11T01:09:44.184Z,58.37
2018-03-11T01:10:44.182Z,58.28
2018-03-11T01:11:44.181Z,58.37
2018-03-11T01:12:44.176Z,57.99
2018-03-11T01:13:44.175Z,57.51
2018-03-11T01:14:44.174Z,57.13
2018-03-11T01:15:44.171Z,57.42
2018-03-11T01:16:44.167Z,57.99
2018-03-11T01:17:44.165Z,58.08
2018-03-11T01:18:44.164Z,58.47
2018-03-11T01:19:44.162Z,58.37
2018-03-11T01:20:44.157Z,58.37
2018-03-11T01:21:44.156Z,57.42
2018-03-11T01:22:44.154Z,57.80
2018-03-11T01:23:44.152Z,57.89
2018-03-11T01:24:44.149Z,57.04
2018-03-11T01:25:44.146Z,57.80
2018-03-11T01:26:44.143Z,57.32
2018-03-11T01:27:44.142Z,57.07
2018-03-11T01:28:44.138Z,56.87
2018-03-11T01:29:44.136Z,56.87
2018-03-11T01:30:44.133Z,56.75
2018-03-11T01:31:44.131Z,57.13
2018-03-11T01:32:44.128Z,56.56
2018-03-11T01:33:44.125Z,56.75
2018-03-11T01:34:44.123Z,56.56
2018-03-11T01:35:44.121Z,56.56
2018-03-11T01:36:44.118Z,56.37
2018-03-11T01:37:44.116Z,56.59
2018-03-11T01:38:44.115Z,55.99
2018-03-11T01:39:44.111Z,56.37
2018-03-11T01:40:44.108Z,56.46
2018-03-11T01:41:44.106Z,56.46
2018-03-11T01:42:44.104Z,56.27
2018-03-11T01:43:44.103Z,56.02
2018-03-11T01:44:44.098Z,56.21
2018-03-11T01:45:44.097Z,56.11
2018-03-11T01:46:44.094Z,56.11
2018-03-11T01:47:44.093Z,56.30
2018-03-11T01:48:44.088Z,56.02
2018-03-11T01:49:44.085Z,55.92
2018-03-11T01:50:44.084Z,56.11
2018-03-11T01:51:44.083Z,56.02
2018-03-11T01:52:44.080Z,56.11
2018-03-11T01:53:44.078Z,56.02
2018-03-11T01:54:44.075Z,56.02
2018-03-11T01:55:44.073Z,56.37
2018-03-11T01:56:44.070Z,56.37
2018-03-11T01:57:44.070Z,56.11
2018-03-11T01:58:44.066Z,56.46
2018-03-11T01:59:44.063Z,56.27
2018-03-11T02:00:44.061Z,56.27
2018-03-11T02:01:44.059Z,55.99
2018-03-11T02:02:44.057Z,55.99
2018-03-11T02:03:44.054Z,56.27
2018-03-11T02:04:44.051Z,56.27
2018-03-11T02:05:44.051Z,56.46
2018-03-11T02:06:44.063Z,57.04
2018-03-11T02:07:44.044Z,57.51
2018-03-11T02:08:44.043Z,56.65
2018-03-11T02:09:44.040Z,56.65
2018-03-11T02:10:44.038Z,56.75
2018-03-11T02:11:44.035Z,57.42
2018-03-11T02:12:44.032Z,56.85
2018-03-11T02:13:44.030Z,56.85
2018-03-11T02:14:44.029Z,56.56
2018-03-11T02:15:44.027Z,56.46
2018-03-11T02:16:44.022Z,56.56
2018-03-11T02:17:44.020Z,56.56
2018-03-11T02:18:44.019Z,55.26
2018-03-11T02:19:44.016Z,54.88
2018-03-11T02:20:44.013Z,54.59
2018-03-11T02:21:44.010Z,54.30
2018-03-11T02:22:44.009Z,54.30
2018-03-11T02:23:44.006Z,54.39
2018-03-11T02:24:44.003Z,54.21
2018-03-11T02:25:44.000Z,54.49
2018-03-11T02:26:43.998Z,54.68
2018-03-11T02:27:43.997Z,54.78
2018-03-11T02:28:43.994Z,54.97
2018-03-11T02:29:43.991Z,54.97
2018-03-11T02:30:43.989Z,55.16
2018-03-11T02:31:43.993Z,54.97
2018-03-11T02:32:43.984Z,54.68
2018-03-11T02:33:43.980Z,54.78
2018-03-11T02:34:43.979Z,54.49
2018-03-11T02:35:43.978Z,55.07
2018-03-11T02:36:43.974Z,54.97
2018-03-11T02:37:43.971Z,54.97
2018-03-11T02:38:43.971Z,55.07
2018-03-11T02:39:43.969Z,55.35
2018-03-11T02:40:43.965Z,55.16
2018-03-11T02:41:43.964Z,55.07
2018-03-11T02:42:43.959Z,55.26
2018-03-11T02:43:43.959Z,55.26
2018-03-11T02:44:43.956Z,55.54
2018-03-11T02:45:43.954Z,55.73
2018-03-11T02:46:43.951Z,55.92
2018-03-11T02:47:43.950Z,56.21
2018-03-11T02:48:43.946Z,55.73
2018-03-11T02:49:43.945Z,55.16
2018-03-11T02:50:43.942Z,54.97
2018-03-11T02:51:43.940Z,54.59
2018-03-11T02:52:43.938Z,54.68
2018-03-11T02:53:43.938Z,54.30
2018-03-11T02:54:43.932Z,54.39
2018-03-11T02:55:43.934Z,54.59
2018-03-11T02:56:43.930Z,54.30
2018-03-11T02:57:43.929Z,54.49
2018-03-11T02:58:43.927Z,54.49
2018-03-11T02:59:43.922Z,54.39
2018-03-11T03:00:43.920Z,54.49
2018-03-11T03:01:43.918Z,54.49
2018-03-11T03:02:43.918Z,54.02
2018-03-11T03:03:43.913Z,53.73
2018-03-11T03:04:43.910Z,53.92
2018-03-11T03:05:43.909Z,54.21
2018-03-11T03:06:43.908Z,54.39
2018-03-11T03:07:43.906Z,54.39
2018-03-11T03:08:43.904Z,54.68
2018-03-11T03:09:43.901Z,54.78
2018-03-11T03:10:43.900Z,54.59
2018-03-11T03:11:43.897Z,54.88
2018-03-11T03:12:43.894Z,54.39
2018-03-11T03:13:43.892Z,54.68
2018-03-11T03:14:43.889Z,54.97
2018-03-11T03:15:43.887Z,54.49
2018-03-11T03:16:43.885Z,55.07
2018-03-11T03:17:43.882Z,54.85
2018-03-11T03:18:43.881Z,55.22
2018-03-11T03:19:43.879Z,55.42
2018-03-11T03:20:43.874Z,56.09
2018-03-11T03:21:43.872Z,56.18
2018-03-11T03:22:43.870Z,56.27
2018-03-11T03:23:43.869Z,56.18
2018-03-11T03:24:43.873Z,56.46
2018-03-11T03:25:43.864Z,56.18
2018-03-11T03:26:43.861Z,56.85
2018-03-11T03:27:43.859Z,56.75
2018-03-11T03:28:43.856Z,57.32
2018-03-11T03:29:43.855Z,56.85
2018-03-11T03:30:43.907Z,56.75
2018-03-11T03:31:43.851Z,56.75
2018-03-11T03:32:43.848Z,56.27
2018-03-11T03:33:43.844Z,56.18
2018-03-11T03:34:43.843Z,55.90
2018-03-11T03:35:43.839Z,55.99
2018-03-11T03:36:43.837Z,55.90
2018-03-11T03:37:43.837Z,55.61
2018-03-11T03:38:43.832Z,55.61
2018-03-11T03:39:43.831Z,55.61
2018-03-11T03:40:43.827Z,55.80
2018-03-11T03:41:43.826Z,55.90
2018-03-11T03:42:43.823Z,55.51
2018-03-11T03:43:43.820Z,55.04
2018-03-11T03:44:43.816Z,54.66
2018-03-11T03:45:43.816Z,54.59
2018-03-11T03:46:43.813Z,54.68
2018-03-11T03:47:43.809Z,54.78
2018-03-11T03:48:43.806Z,54.78
2018-03-11T03:49:43.804Z,54.59
2018-03-11T03:50:43.803Z,54.97
2018-03-11T03:51:43.800Z,55.07
2018-03-11T03:52:43.797Z,54.49
2018-03-11T03:53:43.794Z,54.59
2018-03-11T03:54:43.792Z,54.68
2018-03-11T03:55:43.790Z,54.59
2018-03-11T03:56:43.787Z,54.88
2018-03-11T03:57:43.783Z,55.35
2018-03-11T03:58:43.781Z,55.22
2018-03-11T03:59:43.780Z,54.75
2018-03-11T04:00:43.787Z,55.22
2018-03-11T04:01:43.775Z,55.22
2018-03-11T04:02:43.771Z,55.13
2018-03-11T04:03:43.770Z,55.04
2018-03-11T04:04:43.767Z,55.13
2018-03-11T04:05:43.764Z,55.04
2018-03-11T04:06:43.762Z,55.13
2018-03-11T04:07:43.761Z,55.32
2018-03-11T04:08:43.756Z,55.42
2018-03-11T04:09:43.754Z,55.70
2018-03-11T04:10:43.752Z,55.90
2018-03-11T04:11:43.749Z,55.70
2018-03-11T04:12:43.745Z,55.70
2018-03-11T04:13:43.744Z,55.80
2018-03-11T04:14:43.743Z,55.90
2018-03-11T04:15:43.740Z,55.99
2018-03-11T04:16:43.737Z,55.22
2018-03-11T04:17:43.735Z,55.80
2018-03-11T04:18:43.732Z,55.51
2018-03-11T04:19:43.730Z,55.22
2018-03-11T04:20:43.726Z,55.22
2018-03-11T04:21:43.724Z,55.32
2018-03-11T04:22:43.721Z,54.94
2018-03-11T04:23:43.719Z,55.22
2018-03-11T04:24:43.717Z,55.42
2018-03-11T04:25:43.713Z,55.70
2018-03-11T04:26:43.712Z,56.18
2018-03-11T04:27:43.710Z,55.70
2018-03-11T04:28:43.707Z,56.27
2018-03-11T04:29:43.704Z,56.09
2018-03-11T04:30:43.702Z,56.27
2018-03-11T04:31:43.702Z,56.56
2018-03-11T04:32:43.695Z,56.37
2018-03-11T04:33:43.695Z,56.56
2018-03-11T04:34:43.691Z,56.27
2018-03-11T04:35:43.688Z,56.37
2018-03-11T04:36:43.685Z,56.09
2018-03-11T04:37:43.687Z,56.09
2018-03-11T04:38:43.681Z,56.56
2018-03-11T04:39:43.679Z,56.37
2018-03-11T04:40:43.676Z,56.85
2018-03-11T04:41:43.673Z,56.92
2018-03-11T04:42:43.671Z,56.65
2018-03-11T04:43:43.671Z,56.65
2018-03-11T04:44:43.665Z,56.53
2018-03-11T04:45:43.662Z,56.18
2018-03-11T04:46:43.664Z,55.70
2018-03-11T04:47:43.659Z,55.80
2018-03-11T04:48:43.655Z,55.32
2018-03-11T04:49:43.653Z,55.42
2018-03-11T04:50:43.650Z,55.22
2018-03-11T04:51:43.648Z,54.94
2018-03-11T04:52:43.645Z,55.51
2018-03-11T04:53:43.642Z,55.04
2018-03-11T04:54:43.640Z,54.94
2018-03-11T04:55:43.638Z,55.13
2018-03-11T04:56:43.635Z,55.22
2018-03-11T04:57:43.632Z,55.42
2018-03-11T04:58:43.630Z,55.70
2018-03-11T04:59:43.628Z,55.90
2018-03-11T05:00:43.625Z,55.99
2018-03-11T05:01:43.623Z,55.90
2018-03-11T05:02:43.620Z,55.90
2018-03-11T05:03:43.618Z,56.37
2018-03-11T05:04:43.614Z,56.15
2018-03-11T05:05:43.612Z,56.37
2018-03-11T05:06:43.609Z,56.46
2018-03-11T05:07:43.607Z,56.56
2018-03-11T05:08:43.606Z,56.56
2018-03-11T05:09:43.602Z,56.63
2018-03-11T05:10:43.599Z,57.01
2018-03-11T05:11:43.596Z,57.39
2018-03-11T05:12:43.593Z,57.67
2018-03-11T05:13:43.591Z,57.39
2018-03-11T05:14:43.589Z,57.58
2018-03-11T05:15:43.589Z,57.58
2018-03-11T05:16:43.583Z,57.39
2018-03-11T05:17:43.580Z,57.67
2018-03-11T05:18:43.580Z,57.29
2018-03-11T05:19:43.575Z,57.48
2018-03-11T05:20:43.572Z,57.48
2018-03-11T05:21:43.568Z,57.39
2018-03-11T05:22:43.566Z,57.20
2018-03-11T05:23:43.564Z,57.29
2018-03-11T05:24:43.560Z,57.48
2018-03-11T05:25:43.558Z,57.77
2018-03-11T05:26:43.558Z,56.82
2018-03-11T05:27:43.554Z,56.15
2018-03-11T05:28:43.548Z,56.18
2018-03-11T05:29:43.546Z,55.96
2018-03-11T05:30:43.545Z,55.80
2018-03-11T05:31:43.541Z,55.32
2018-03-11T05:32:43.538Z,55.32
2018-03-11T05:33:43.535Z,55.22
2018-03-11T05:34:43.534Z,55.22
2018-03-11T05:35:43.530Z,54.94
2018-03-11T05:36:43.527Z,55.70
2018-03-11T05:37:43.524Z,55.22
2018-03-11T05:38:43.525Z,55.04
2018-03-11T05:39:43.520Z,54.56
2018-03-11T05:40:43.517Z,54.94
2018-03-11T05:41:43.514Z,54.37
2018-03-11T05:42:43.512Z,54.75
2018-03-11T05:43:43.512Z,54.66
2018-03-11T05:44:43.507Z,54.37
2018-03-11T05:45:43.503Z,54.27
2018-03-11T05:46:43.502Z,54.37
2018-03-11T05:47:43.497Z,54.66
2018-03-11T05:48:43.494Z,54.66
2018-03-11T05:49:43.493Z,54.66
2018-03-11T05:50:43.489Z,54.66
2018-03-11T05:51:43.487Z,55.04
2018-03-11T05:52:43.484Z,54.75
2018-03-11T05:53:43.483Z,54.66
2018-03-11T05:54:43.480Z,54.66
2018-03-11T05:55:43.477Z,54.37
2018-03-11T05:56:43.475Z,54.56
2018-03-11T05:57:43.471Z,54.37
2018-03-11T05:58:43.470Z,54.75
2018-03-11T05:59:43.468Z,54.94
2018-03-11T06:00:43.463Z,55.61
2018-03-11T06:01:43.462Z,55.42
2018-03-11T06:02:43.458Z,55.22
2018-03-11T06:03:43.456Z,54.94
2018-03-11T06:04:43.459Z,55.42
2018-03-11T06:05:43.451Z,55.22
2018-03-11T06:06:43.450Z,55.22
2018-03-11T06:07:43.448Z,55.04
2018-03-11T06:08:43.444Z,55.22
2018-03-11T06:09:43.448Z,55.51
2018-03-11T06:10:43.443Z,55.42
2018-03-11T06:11:43.437Z,55.51
2018-03-11T06:12:43.434Z,55.04
2018-03-11T06:13:43.432Z,54.85
2018-03-11T06:14:43.430Z,54.59
2018-03-11T06:15:43.429Z,54.30
2018-03-11T06:16:43.426Z,54.30
2018-03-11T06:17:43.424Z,53.54
2018-03-11T06:18:43.421Z,53.06
2018-03-11T06:19:43.419Z,53.54
2018-03-11T06:20:43.419Z,53.16
2018-03-11T06:21:43.416Z,52.49
2018-03-11T06:22:43.414Z,53.47
2018-03-11T06:23:43.413Z,53.44
2018-03-11T06:24:43.411Z,52.97
2018-03-11T06:25:43.409Z,53.06
2018-03-11T06:26:43.408Z,53.16
2018-03-11T06:27:43.413Z,53.64
2018-03-11T06:28:43.404Z,52.71
2018-03-11T06:29:43.403Z,53.09
2018-03-11T06:30:43.402Z,51.47
2018-03-11T06:31:43.402Z,51.66
2018-03-11T06:32:43.398Z,51.37
2018-03-11T06:33:43.399Z,51.37
2018-03-11T06:34:43.405Z,51.28
2018-03-11T06:35:43.396Z,51.66
2018-03-11T06:36:43.395Z,51.85
2018-03-11T06:37:43.393Z,51.76
2018-03-11T06:38:43.393Z,51.92
2018-03-11T06:39:43.393Z,52.49
2018-03-11T06:40:43.389Z,52.59
2018-03-11T06:41:43.390Z,52.97
2018-03-11T06:42:43.392Z,52.78
2018-03-11T06:43:43.387Z,52.68
2018-03-11T06:44:43.385Z,52.78
2018-03-11T06:45:43.384Z,52.49
2018-03-11T06:46:43.383Z,52.68
2018-03-11T06:47:43.381Z,52.78
2018-03-11T06:48:43.379Z,52.68
2018-03-11T06:49:43.378Z,53.06
2018-03-11T06:50:43.376Z,53.25
2018-03-11T06:51:43.375Z,52.87
2018-03-11T06:52:43.374Z,53.44
2018-03-11T06:53:43.371Z,53.35
2018-03-11T06:54:43.370Z,53.64
2018-03-11T06:55:43.369Z,53.83
2018-03-11T06:56:43.366Z,53.54
2018-03-11T06:57:43.365Z,53.54
2018-03-11T06:58:43.368Z,53.54
2018-03-11T06:59:43.363Z,53.35
2018-03-11T07:00:43.360Z,53.35
2018-03-11T07:01:43.359Z,53.64
2018-03-11T07:02:43.359Z,53.54
2018-03-11T07:03:43.366Z,53.44
2018-03-11T07:04:43.363Z,53.06
2018-03-11T07:05:43.353Z,53.06
2018-03-11T07:06:43.351Z,52.87
2018-03-11T07:07:43.349Z,52.68
2018-03-11T07:08:43.347Z,52.23
2018-03-11T07:09:43.346Z,51.37
2018-03-11T07:10:43.345Z,51.28
2018-03-11T07:11:43.343Z,51.28
2018-03-11T07:12:43.340Z,50.90
2018-03-11T07:13:43.339Z,50.90
2018-03-11T07:14:43.339Z,50.80
2018-03-11T07:15:43.336Z,50.71
2018-03-11T07:16:43.333Z,50.61
2018-03-11T07:17:43.332Z,50.80
2018-03-11T07:18:43.332Z,50.99
2018-03-11T07:19:43.631Z,50.71
2018-03-11T07:20:43.327Z,50.90
2018-03-11T07:21:43.327Z,50.71
2018-03-11T07:22:43.324Z,50.42
2018-03-11T07:23:43.323Z,50.42
2018-03-11T07:24:43.322Z,50.52
2018-03-11T07:25:43.325Z,50.42
2018-03-11T07:26:43.319Z,50.54
2018-03-11T07:27:43.318Z,50.32
2018-03-11T07:28:43.315Z,50.80
2018-03-11T07:29:43.315Z,51.12
2018-03-11T07:30:43.312Z,50.92
2018-03-11T07:31:43.312Z,51.09
2018-03-11T07:32:43.311Z,50.83
2018-03-11T07:33:43.309Z,51.02
2018-03-11T07:34:43.312Z,50.83
2018-03-11T07:35:43.306Z,50.63
2018-03-11T07:36:43.305Z,50.71
2018-03-11T07:37:43.304Z,50.42
2018-03-11T07:38:43.303Z,50.73
2018-03-11T07:39:43.304Z,50.92
2018-03-11T07:40:43.302Z,50.73
2018-03-11T07:41:43.300Z,50.90
2018-03-11T07:42:43.300Z,51.02
2018-03-11T07:43:43.303Z,51.18
2018-03-11T07:44:43.297Z,51.12
2018-03-11T07:45:43.296Z,50.90
2018-03-11T07:46:43.295Z,50.73
2018-03-11T07:47:43.295Z,51.02
2018-03-11T07:48:43.293Z,51.02
2018-03-11T07:49:43.293Z,50.83
2018-03-11T07:50:43.291Z,50.63
2018-03-11T07:51:43.291Z,50.73
2018-03-11T07:52:43.289Z,50.73
2018-03-11T07:53:43.289Z,50.26
2018-03-11T07:54:43.286Z,50.83
2018-03-11T07:55:43.287Z,50.83
2018-03-11T07:56:43.283Z,49.87
2018-03-11T07:57:43.283Z,49.59
2018-03-11T07:58:43.282Z,49.49
2018-03-11T07:59:43.282Z,49.33
2018-03-11T08:00:43.280Z,49.02
2018-03-11T08:01:43.280Z,47.89
2018-03-11T08:02:43.284Z,47.99
2018-03-11T08:03:43.281Z,47.89
2018-03-11T08:04:43.278Z,47.99
2018-03-11T08:05:43.277Z,47.32
2018-03-11T08:06:43.276Z,47.13
2018-03-11T08:07:43.275Z,45.89
2018-03-11T08:08:43.276Z,46.47
2018-03-11T08:09:43.274Z,46.56
2018-03-11T08:10:43.281Z,46.84
2018-03-11T08:11:43.274Z,46.75
2018-03-11T08:12:43.271Z,46.37
2018-03-11T08:13:43.271Z,46.27
2018-03-11T08:14:43.272Z,46.68
2018-03-11T08:15:43.271Z,46.27
2018-03-11T08:16:43.271Z,47.03
2018-03-11T08:17:43.270Z,47.03
2018-03-11T08:18:43.270Z,47.61
2018-03-11T08:19:43.270Z,47.23
2018-03-11T08:20:43.270Z,47.99
2018-03-11T08:21:43.268Z,47.42
2018-03-11T08:22:43.268Z,47.80
2018-03-11T08:23:43.270Z,47.44
2018-03-11T08:24:43.267Z,47.61
2018-03-11T08:25:43.267Z,47.92
2018-03-11T08:26:43.267Z,47.25
2018-03-11T08:27:43.267Z,47.71
2018-03-11T08:28:43.265Z,47.63
2018-03-11T08:29:43.266Z,47.34
2018-03-11T08:30:43.266Z,46.97
2018-03-11T08:31:43.265Z,47.34
2018-03-11T08:32:43.264Z,47.44
2018-03-11T08:33:43.264Z,47.44
2018-03-11T08:34:43.265Z,47.54
2018-03-11T08:35:43.265Z,47.16
2018-03-11T08:36:43.265Z,46.97
2018-03-11T08:37:43.264Z,47.25
2018-03-11T08:38:43.264Z,46.77
2018-03-11T08:39:43.264Z,46.20
2018-03-11T08:40:43.270Z,46.20
2018-03-11T08:41:43.264Z,46.39
2018-03-11T08:42:43.264Z,46.20
2018-03-11T08:43:43.265Z,45.63
2018-03-11T08:44:43.264Z,45.84
2018-03-11T08:45:43.264Z,45.37
2018-03-11T08:46:43.263Z,45.75
2018-03-11T08:47:43.264Z,45.84
2018-03-11T08:48:43.264Z,45.37
2018-03-11T08:49:43.265Z,45.56
2018-03-11T08:50:43.265Z,45.37
2018-03-11T08:51:43.269Z,45.46
2018-03-11T08:52:43.265Z,45.75
2018-03-11T08:53:43.284Z,45.37
2018-03-11T08:54:43.265Z,46.13
2018-03-11T08:55:43.266Z,46.13
2018-03-11T08:56:43.267Z,46.13
2018-03-11T08:57:43.266Z,45.75
2018-03-11T08:58:43.266Z,45.65
2018-03-11T08:59:43.266Z,45.75
2018-03-11T09:00:43.267Z,45.27
2018-03-11T09:01:43.269Z,45.46
2018-03-11T09:02:43.269Z,45.65
2018-03-11T09:03:43.268Z,45.46
2018-03-11T09:04:43.269Z,45.46
2018-03-11T09:05:43.269Z,45.37
2018-03-11T09:06:43.270Z,45.75
2018-03-11T09:07:43.271Z,45.75
2018-03-11T09:08:43.271Z,45.65
2018-03-11T09:09:43.271Z,45.75
2018-03-11T09:10:43.271Z,45.75
2018-03-11T09:11:43.271Z,45.65
2018-03-11T09:12:43.271Z,46.51
2018-03-11T09:13:43.273Z,46.42
2018-03-11T09:14:43.273Z,46.22
2018-03-11T09:15:43.316Z,46.32
2018-03-11T09:16:43.273Z,46.22
2018-03-11T09:17:43.274Z,45.56
2018-03-11T09:18:43.273Z,45.37
2018-03-11T09:19:43.279Z,45.48
2018-03-11T09:20:43.274Z,45.29
2018-03-11T09:21:43.279Z,45.10
2018-03-11T09:22:43.277Z,44.72
2018-03-11T09:23:43.277Z,45.67
2018-03-11T09:24:43.277Z,45.20
2018-03-11T09:25:43.277Z,45.10
2018-03-11T09:26:43.289Z,45.10
2018-03-11T09:27:43.281Z,44.81
2018-03-11T09:28:43.280Z,45.58
2018-03-11T09:29:43.282Z,44.91
2018-03-11T09:30:43.282Z,44.62
2018-03-11T09:31:43.283Z,45.58
2018-03-11T09:32:43.284Z,46.34
2018-03-11T09:33:43.283Z,46.25
2018-03-11T09:34:43.287Z,45.67
2018-03-11T09:35:43.286Z,45.48
2018-03-11T09:36:43.288Z,45.58
2018-03-11T09:37:43.287Z,45.39
2018-03-11T09:38:43.292Z,45.39
2018-03-11T09:39:43.291Z,45.29
2018-03-11T09:40:43.290Z,45.39
2018-03-11T09:41:43.292Z,45.01
2018-03-11T09:42:43.297Z,45.01
2018-03-11T09:43:43.293Z,44.72
2018-03-11T09:44:43.295Z,44.62
2018-03-11T09:45:43.297Z,44.24
2018-03-11T09:46:43.299Z,44.53
2018-03-11T09:47:43.298Z,44.53
2018-03-11T09:48:43.300Z,44.05
2018-03-11T09:49:43.300Z,44.43
2018-03-11T09:50:43.302Z,44.17
2018-03-11T09:51:43.304Z,43.79
2018-03-11T09:52:43.303Z,43.69
2018-03-11T09:53:43.306Z,43.59
2018-03-11T09:54:43.307Z,43.12
2018-03-11T09:55:43.309Z,42.83
2018-03-11T09:56:43.309Z,43.02
2018-03-11T09:57:43.311Z,43.30
2018-03-11T09:58:43.313Z,43.21
2018-03-11T09:59:43.314Z,43.12
2018-03-11T10:00:43.315Z,43.50
2018-03-11T10:01:43.318Z,43.69
2018-03-11T10:02:43.323Z,43.12
2018-03-11T10:03:43.325Z,43.04
2018-03-11T10:04:43.322Z,42.94
2018-03-11T10:05:43.323Z,43.62
2018-03-11T10:06:43.326Z,42.76
2018-03-11T10:07:43.327Z,42.27
2018-03-11T10:08:43.329Z,41.99
2018-03-11T10:09:43.331Z,41.03
2018-03-11T10:10:43.332Z,41.61
2018-03-11T10:11:43.335Z,40.77
2018-03-11T10:12:43.337Z,40.58
2018-03-11T10:13:43.337Z,40.58
2018-03-11T10:14:43.342Z,40.77
2018-03-11T10:15:43.343Z,41.05
2018-03-11T10:16:43.345Z,40.86
2018-03-11T10:17:43.352Z,40.58
2018-03-11T10:18:43.348Z,40.86
2018-03-11T10:19:43.351Z,40.95
2018-03-11T10:20:43.352Z,41.05
2018-03-11T10:21:43.355Z,41.34
2018-03-11T10:22:43.357Z,41.72
2018-03-11T10:23:43.361Z,40.95
2018-03-11T10:24:43.361Z,42.30
2018-03-11T10:25:43.364Z,41.82
2018-03-11T10:26:43.364Z,41.15
2018-03-11T10:27:43.369Z,41.72
2018-03-11T10:28:43.373Z,41.15
2018-03-11T10:29:43.373Z,41.55
2018-03-11T10:30:43.373Z,41.07
2018-03-11T10:31:43.378Z,40.78
2018-03-11T10:32:43.378Z,40.02
2018-03-11T10:33:43.382Z,40.02
2018-03-11T10:34:43.384Z,40.14
2018-03-11T10:35:43.388Z,40.31
2018-03-11T10:36:43.390Z,40.42
2018-03-11T10:37:43.394Z,40.33
2018-03-11T10:38:43.399Z,40.04
2018-03-11T10:39:43.398Z,40.14
2018-03-11T10:40:43.402Z,39.87
2018-03-11T10:41:43.466Z,39.75
2018-03-11T10:42:43.408Z,39.85
2018-03-11T10:43:43.416Z,39.77
2018-03-11T10:44:43.415Z,40.04
2018-03-11T10:45:43.440Z,38.91
2018-03-11T10:46:43.421Z,38.53
2018-03-11T10:47:43.425Z,38.72
2018-03-11T10:48:43.476Z,38.60
2018-03-11T10:49:43.432Z,39.20
2018-03-11T10:50:43.461Z,38.98
2018-03-11T10:51:43.438Z,38.60
2018-03-11T10:52:43.441Z,38.41
2018-03-11T10:53:43.446Z,38.53
2018-03-11T10:54:43.449Z,39.10
2018-03-11T10:55:43.455Z,39.08
2018-03-11T10:56:43.455Z,39.18
2018-03-11T10:57:43.457Z,39.18
2018-03-11T10:58:43.462Z,39.28
2018-03-11T10:59:43.464Z,39.94
2018-03-11T11:00:43.470Z,40.61
2018-03-11T11:01:43.470Z,40.33
2018-03-11T11:02:43.474Z,41.09
2018-03-11T11:03:43.478Z,41.00
2018-03-11T11:04:43.479Z,41.28
2018-03-11T11:05:43.481Z,41.74
2018-03-11T11:06:43.486Z,41.17
2018-03-11T11:07:43.489Z,40.78
2018-03-11T11:08:43.491Z,40.78
2018-03-11T11:09:43.495Z,41.46
2018-03-11T11:10:43.496Z,41.65
2018-03-11T11:11:43.500Z,41.05
2018-03-11T11:12:43.501Z,41.34
2018-03-11T11:13:43.504Z,41.24
2018-03-11T11:14:43.507Z,41.24
2018-03-11T11:15:43.512Z,41.82
2018-03-11T11:16:43.511Z,42.58
2018-03-11T11:17:43.515Z,41.82
2018-03-11T11:18:43.517Z,40.58
2018-03-11T11:19:43.520Z,40.38
2018-03-11T11:20:43.521Z,40.48
2018-03-11T11:21:43.523Z,40.38
2018-03-11T11:22:43.526Z,40.38
2018-03-11T11:23:43.529Z,40.38
2018-03-11T11:24:43.529Z,40.58
2018-03-11T11:25:43.571Z,40.67
2018-03-11T11:26:43.539Z,40.77
2018-03-11T11:27:43.537Z,40.58
2018-03-11T11:28:43.537Z,40.77
2018-03-11T11:29:43.540Z,41.34
2018-03-11T11:30:43.542Z,41.53
2018-03-11T11:31:43.545Z,41.53
2018-03-11T11:32:43.546Z,42.20
2018-03-11T11:33:43.549Z,42.20
2018-03-11T11:34:43.549Z,42.68
2018-03-11T11:35:43.552Z,42.87
2018-03-11T11:36:43.553Z,42.76
2018-03-11T11:37:43.554Z,42.68
2018-03-11T11:38:43.558Z,43.04
2018-03-11T11:39:43.558Z,43.62
2018-03-11T11:40:43.559Z,43.71
2018-03-11T11:41:43.561Z,43.14
2018-03-11T11:42:43.564Z,43.71
2018-03-11T11:43:43.564Z,43.62
2018-03-11T11:44:43.566Z,43.80
2018-03-11T11:45:43.567Z,44.00
2018-03-11T11:46:43.570Z,43.71
2018-03-11T11:47:43.614Z,43.62
2018-03-11T11:48:43.604Z,43.62
2018-03-11T11:49:43.574Z,43.62
2018-03-11T11:50:43.577Z,43.62
2018-03-11T11:51:43.578Z,43.62
2018-03-11T11:52:43.578Z,43.80
2018-03-11T11:53:43.579Z,44.19
2018-03-11T11:54:43.580Z,43.80
2018-03-11T11:55:43.583Z,43.71
2018-03-11T11:56:43.584Z,43.90
2018-03-11T11:57:43.586Z,43.52
2018-03-11T11:58:43.588Z,44.00
2018-03-11T11:59:43.588Z,43.90
2018-03-11T12:00:43.618Z,43.62
2018-03-11T12:01:43.590Z,43.90
2018-03-11T12:02:43.593Z,44.19
2018-03-11T12:03:43.597Z,44.17
2018-03-11T12:04:43.594Z,43.90
2018-03-11T12:05:43.595Z,44.36
2018-03-11T12:06:43.596Z,44.74
2018-03-11T12:07:43.597Z,44.67
2018-03-11T12:08:43.599Z,44.93
2018-03-11T12:09:43.601Z,44.65
2018-03-11T12:10:43.601Z,44.93
2018-03-11T12:11:43.603Z,45.70
2018-03-11T12:12:43.603Z,45.51
2018-03-11T12:13:43.604Z,45.70
2018-03-11T12:14:43.607Z,45.60
2018-03-11T12:15:43.608Z,45.31
2018-03-11T12:16:43.609Z,45.41
2018-03-11T12:17:43.610Z,45.51
2018-03-11T12:18:43.611Z,45.60
2018-03-11T12:19:43.613Z,45.51
2018-03-11T12:20:43.612Z,45.51
2018-03-11T12:21:43.615Z,45.03
2018-03-11T12:22:43.615Z,45.41
2018-03-11T12:23:43.618Z,45.77
2018-03-11T12:24:43.616Z,45.39
2018-03-11T12:25:43.618Z,45.29
2018-03-11T12:26:43.620Z,45.60
2018-03-11T12:27:43.622Z,45.87
2018-03-11T12:28:43.621Z,45.48
2018-03-11T12:29:43.621Z,45.39
2018-03-11T12:30:43.624Z,45.31
2018-03-11T12:31:43.623Z,45.01
2018-03-11T12:32:43.624Z,44.74
2018-03-11T12:33:43.625Z,45.20
2018-03-11T12:34:43.626Z,44.93
2018-03-11T12:35:43.627Z,45.41
2018-03-11T12:36:43.626Z,45.12
2018-03-11T12:37:43.628Z,44.93
2018-03-11T12:38:43.629Z,45.12
2018-03-11T12:39:43.661Z,45.03
2018-03-11T12:40:43.630Z,44.93
2018-03-11T12:41:43.632Z,44.93
2018-03-11T12:42:43.633Z,44.93
2018-03-11T12:43:43.633Z,45.22
2018-03-11T12:44:43.633Z,45.51
2018-03-11T12:45:43.636Z,45.79
2018-03-11T12:46:43.637Z,45.41
2018-03-11T12:47:43.638Z,45.31
2018-03-11T12:48:43.637Z,45.60
2018-03-11T12:49:43.639Z,45.41
2018-03-11T12:50:43.640Z,45.51
2018-03-11T12:51:43.640Z,45.41
2018-03-11T12:52:43.642Z,45.41